Time;durP1;ratioP1;P1;durP2;ratioP2;P2;SDS_P1;SDS_P2;PMS_P1;PMS_P2;Temp;Humidity;BMP_temperature;BMP_pressure;BME280_temperature;BME280_humidity;BME280_pressure;Samples;Min_cycle;Max_cycle;Signal;HPM_P1;HPM_P2
2022/01/05 00:00:00;;;;;;;136.02;71.00;;;;;;;3.09;72.85;94885.66;5029725;28;20026;-77
2022/01/05 00:02:26;;;;;;;141.30;70.72;;;;;;;3.11;73.68;94888.16;5031040;28;20552;-77
2022/01/05 00:04:51;;;;;;;120.05;63.00;;;;;;;3.16;73.61;94886.72;5011559;28;20021;-77
2022/01/05 00:07:17;;;;;;;123.13;63.83;;;;;;;3.25;72.94;94878.91;5030992;28;20123;-77
2022/01/05 00:09:43;;;;;;;131.07;64.60;;;;;;;3.32;72.88;94886.13;5029021;28;20029;-78
2022/01/05 00:12:09;;;;;;;112.18;59.65;;;;;;;3.41;72.72;94883.59;5012712;28;20025;-77
2022/01/05 00:14:35;;;;;;;119.35;60.38;;;;;;;3.47;72.63;94888.28;5011245;28;20040;-78
2022/01/05 00:17:00;;;;;;;127.43;63.65;;;;;;;3.50;70.75;94882.69;5029530;28;20041;-77
2022/01/05 00:19:26;;;;;;;111.78;56.20;;;;;;;3.43;72.20;94889.56;5012036;28;20029;-77
2022/01/05 00:21:51;;;;;;;110.15;56.25;;;;;;;3.45;71.70;94884.97;4995034;28;20026;-77
2022/01/05 00:24:16;;;;;;;105.32;56.35;;;;;;;3.48;71.24;94874.06;4996106;28;20049;-78
2022/01/05 00:26:42;;;;;;;98.50;50.67;;;;;;;3.59;71.71;94878.34;5010982;28;20416;-79
2022/01/05 00:29:07;;;;;;;107.95;56.22;;;;;;;3.61;71.77;94872.88;5030127;28;20038;-75
2022/01/05 00:31:33;;;;;;;123.38;60.50;;;;;;;3.64;69.98;94873.44;5029008;28;20021;-79
2022/01/05 00:33:58;;;;;;;126.78;64.72;;;;;;;3.57;69.05;94873.19;5029944;28;20025;-78
2022/01/05 00:36:24;;;;;;;113.63;58.65;;;;;;;3.44;69.39;94877.97;5028948;28;20029;-77
2022/01/05 00:38:49;;;;;;;100.00;53.78;;;;;;;3.43;70.70;94871.03;5029485;28;20026;-79
2022/01/05 00:41:14;;;;;;;104.03;51.85;;;;;;;3.53;70.98;94870.97;5029407;28;20021;-77
2022/01/05 00:43:40;;;;;;;117.32;58.85;;;;;;;3.52;69.90;94880.75;5011659;28;20029;-76
2022/01/05 00:46:05;;;;;;;111.30;58.22;;;;;;;3.51;69.91;94884.38;4995890;28;20026;-77
2022/01/05 00:48:34;;;;;;;142.55;69.00;;;;;;;3.41;68.46;94883.59;5010652;28;20029;-78
2022/01/05 00:51:02;;;;;;;137.95;68.55;;;;;;;3.20;68.39;94882.84;5030069;28;20037;-79
2022/01/05 00:53:27;;;;;;;124.70;66.43;;;;;;;3.08;68.56;94878.66;4995222;28;20091;-78
2022/01/05 00:55:53;;;;;;;115.55;60.03;;;;;;;3.05;68.40;94878.97;4995806;28;20037;-78
2022/01/05 00:58:18;;;;;;;135.95;63.50;;;;;;;2.86;68.94;94877.19;5028800;28;20030;-78
2022/01/05 01:00:43;;;;;;;125.22;62.42;;;;;;;2.81;68.94;94875.81;5029537;28;20026;-78
2022/01/05 01:03:09;;;;;;;126.03;60.65;;;;;;;2.84;68.36;94877.34;5029155;28;20108;-77
2022/01/05 01:05:35;;;;;;;131.98;62.92;;;;;;;2.68;68.86;94877.94;5010419;28;20025;-77
2022/01/05 01:08:00;;;;;;;112.43;53.40;;;;;;;2.64;69.44;94865.97;5012119;28;20064;-78
2022/01/05 01:10:26;;;;;;;91.97;45.53;;;;;;;2.63;69.33;94859.81;5027967;28;20499;-79
2022/01/05 01:12:51;;;;;;;98.05;49.08;;;;;;;2.50;70.34;94872.53;5011786;28;20400;-77
2022/01/05 01:15:17;;;;;;;90.68;47.15;;;;;;;2.46;70.34;94869.31;5010157;28;20032;-77
2022/01/05 01:17:42;;;;;;;93.63;48.03;;;;;;;2.34;69.95;94866.81;5011543;28;20048;-76
2022/01/05 01:20:08;;;;;;;91.68;47.42;;;;;;;2.35;70.22;94868.47;5010634;28;20031;-79
2022/01/05 01:22:34;;;;;;;86.72;47.67;;;;;;;2.32;71.09;94858.16;5028696;28;20037;-77
2022/01/05 01:25:00;;;;;;;95.18;48.00;;;;;;;2.37;70.83;94854.28;5011694;28;20040;-77
2022/01/05 01:27:25;;;;;;;95.95;50.80;;;;;;;2.37;70.70;94854.28;5009749;28;20411;-80
2022/01/05 01:29:50;;;;;;;94.88;48.42;;;;;;;2.35;70.92;94863.19;5011575;28;20084;-78
2022/01/05 01:32:16;;;;;;;118.30;58.80;;;;;;;2.31;71.00;94867.09;5027656;28;20029;-80
2022/01/05 01:34:41;;;;;;;106.50;54.45;;;;;;;2.27;71.25;94865.72;5029029;28;20099;-78
2022/01/05 01:37:07;;;;;;;131.77;62.40;;;;;;;2.19;71.11;94855.81;5010220;28;20025;-79
2022/01/05 01:39:32;;;;;;;98.93;52.20;;;;;;;2.20;71.13;94849.56;5010979;28;20115;-78
2022/01/05 01:41:58;;;;;;;101.32;50.92;;;;;;;2.19;70.33;94860.28;4994432;28;20017;-78
2022/01/05 01:44:23;;;;;;;116.38;54.13;;;;;;;2.29;69.79;94852.34;5009861;28;20107;-78
2022/01/05 01:46:49;;;;;;;127.53;60.10;;;;;;;2.31;70.98;94842.44;5011379;28;20451;-77
2022/01/05 01:49:15;;;;;;;147.68;68.57;;;;;;;2.28;71.47;94835.63;5027246;28;20025;-76
2022/01/05 01:51:40;;;;;;;143.02;65.78;;;;;;;2.31;71.01;94843.28;5029031;28;20029;-76
2022/01/05 01:54:06;;;;;;;145.07;65.10;;;;;;;2.34;71.81;94835.06;5027571;28;20026;-77
2022/01/05 01:56:34;;;;;;;129.68;64.32;;;;;;;2.35;71.00;94844.66;5028471;28;20034;-76
2022/01/05 01:59:00;;;;;;;109.40;53.08;;;;;;;2.26;70.34;94842.84;5027553;28;20021;-79
2022/01/05 02:01:26;;;;;;;100.45;49.60;;;;;;;2.18;69.61;94840.06;4994265;28;20105;-76
2022/01/05 02:03:51;;;;;;;97.82;51.25;;;;;;;2.08;70.58;94837.44;5010757;28;20030;-78
2022/01/05 02:06:17;;;;;;;110.88;54.15;;;;;;;2.06;70.65;94832.28;5027232;28;20048;-76
2022/01/05 02:08:43;;;;;;;116.80;56.95;;;;;;;1.99;71.68;94839.09;5028548;28;20420;-78
2022/01/05 02:11:08;;;;;;;111.00;55.90;;;;;;;2.03;70.93;94845.78;4992711;28;20495;-77
2022/01/05 02:13:34;;;;;;;108.53;53.78;;;;;;;2.06;70.78;94834.91;4994297;28;20592;-78
2022/01/05 02:15:59;;;;;;;95.03;50.70;;;;;;;2.02;69.81;94841.47;5009098;28;20049;-76
2022/01/05 02:21:10;;;;;;;93.25;46.13;;;;;;;1.88;69.93;94833.94;5009435;28;20079;-78
2022/01/05 02:23:35;;;;;;;93.20;47.88;;;;;;;1.88;70.11;94831.31;4994082;28;20059;-77
2022/01/05 02:26:05;;;;;;;99.07;51.50;;;;;;;1.82;70.67;94830.06;4994157;28;20057;-77
2022/01/05 02:28:30;;;;;;;97.93;51.70;;;;;;;1.77;70.85;94830.47;5008534;28;20026;-77
2022/01/05 02:30:57;;;;;;;95.53;52.20;;;;;;;1.65;71.82;94839.47;5010546;28;20033;-77
2022/01/05 02:33:22;;;;;;;103.55;53.00;;;;;;;1.68;71.23;94839.19;5008867;28;20488;-77
2022/01/05 02:35:48;;;;;;;92.20;50.55;;;;;;;1.80;71.11;94838.13;5027920;28;20536;-77
2022/01/05 02:38:17;;;;;;;106.63;53.03;;;;;;;1.88;71.86;94828.66;5009315;28;20029;-76
2022/01/05 02:40:42;;;;;;;115.40;59.30;;;;;;;2.05;71.90;94819.19;5026828;28;20091;-78
2022/01/05 02:43:08;;;;;;;117.53;63.53;;;;;;;2.07;72.60;94818.09;5027622;28;20025;-77
2022/01/05 02:45:33;;;;;;;126.38;67.00;;;;;;;2.08;72.50;94825.03;5026168;28;20030;-76
2022/01/05 02:47:59;;;;;;;130.30;66.18;;;;;;;2.11;72.75;94829.25;5010109;28;20021;-76
2022/01/05 02:50:24;;;;;;;114.13;62.63;;;;;;;2.07;72.62;94820.72;5008476;28;20084;-77
2022/01/05 02:52:49;;;;;;;103.88;56.15;;;;;;;2.09;71.07;94810.84;5009970;28;20110;-77
2022/01/05 02:55:16;;;;;;;102.10;50.70;;;;;;;2.00;69.31;94816.16;5026019;28;20431;-77
2022/01/05 02:57:41;;;;;;;90.03;46.75;;;;;;;1.95;69.11;94816.56;5027270;28;20032;-75
2022/01/05 03:00:08;;;;;;;90.28;45.83;;;;;;;1.83;69.00;94819.34;5026920;28;20033;-75
2022/01/05 03:02:34;;;;;;;83.90;44.20;;;;;;;1.76;69.39;94815.56;5026212;28;20026;-77
2022/01/05 03:04:59;;;;;;;79.63;42.63;;;;;;;1.76;69.77;94806.81;5027573;28;20033;-77
2022/01/05 03:07:26;;;;;;;76.15;41.53;;;;;;;1.76;69.69;94812.91;5026093;28;20420;-76
2022/01/05 03:09:51;;;;;;;73.32;41.75;;;;;;;1.67;69.90;94811.94;5027073;28;20126;-77
2022/01/05 03:12:16;;;;;;;87.72;46.05;;;;;;;1.66;69.65;94809.44;5008001;28;20027;-76
2022/01/05 03:14:42;;;;;;;86.35;43.83;;;;;;;1.55;70.37;94803.28;4993428;28;20033;-77
2022/01/05 03:17:07;;;;;;;82.25;41.92;;;;;;;1.59;70.18;94814.44;5008578;28;20520;-77
2022/01/05 03:19:33;;;;;;;75.28;38.70;;;;;;;1.52;69.82;94813.28;5027301;28;20033;-77
2022/01/05 03:21:58;;;;;;;64.13;35.33;;;;;;;1.53;70.50;94809.69;5025751;28;20036;-77
2022/01/05 03:24:23;;;;;;;67.85;36.97;;;;;;;1.41;70.30;94812.47;5008330;28;20021;-77
2022/01/05 03:26:49;;;;;;;61.90;35.25;;;;;;;1.34;70.65;94806.03;5009384;28;20029;-77
2022/01/05 03:29:14;;;;;;;60.35;34.05;;;;;;;1.22;71.01;94808.81;5007809;28;20029;-78
2022/01/05 03:31:40;;;;;;;61.83;33.42;;;;;;;1.30;71.44;94809.91;5027231;28;20029;-76
2022/01/05 03:34:06;;;;;;;62.35;33.95;;;;;;;1.30;70.95;94804.63;5025542;28;20038;-76
2022/01/05 03:36:32;;;;;;;60.35;33.70;;;;;;;1.32;71.02;94803.53;5027043;28;20023;-77
2022/01/05 03:38:57;;;;;;;69.60;36.30;;;;;;;1.46;71.05;94810.25;5008014;28;20025;-79
2022/01/05 03:41:22;;;;;;;62.03;34.67;;;;;;;1.44;71.22;94803.41;5008957;28;20459;-78
2022/01/05 03:43:48;;;;;;;65.00;37.17;;;;;;;1.52;70.57;94798.28;5026516;28;20018;-76
2022/01/05 03:46:14;;;;;;;84.05;44.78;;;;;;;1.54;70.74;94785.78;5025698;28;20032;-77
2022/01/05 03:48:39;;;;;;;97.70;49.00;;;;;;;1.54;70.58;94795.50;5009382;28;20108;-78
2022/01/05 03:51:04;;;;;;;96.85;47.83;;;;;;;1.58;70.43;94796.91;5024953;28;20052;-78
2022/01/05 03:53:30;;;;;;;92.28;47.85;;;;;;;1.52;71.20;94798.28;5009146;28;20416;-77
2022/01/05 03:55:55;;;;;;;88.93;46.20;;;;;;;1.58;70.02;94799.56;5025263;28;20223;-76
2022/01/05 03:58:21;;;;;;;83.90;46.67;;;;;;;1.47;70.70;94806.63;5026945;28;20451;-77
2022/01/05 04:00:49;;;;;;;85.38;45.33;;;;;;;1.44;70.52;94800.75;5026183;28;20034;-77
2022/01/05 04:03:14;;;;;;;91.95;47.25;;;;;;;1.38;71.22;94801.31;5026046;28;20022;-77
2022/01/05 04:05:41;;;;;;;99.60;49.60;;;;;;;1.36;71.48;94798.81;5026689;28;20030;-77
2022/01/05 04:08:06;;;;;;;93.53;49.45;;;;;;;1.39;71.35;94787.16;4991148;28;20064;-78
2022/01/05 04:10:32;;;;;;;89.90;47.92;;;;;;;1.38;70.26;94785.47;5009187;28;20030;-77
2022/01/05 04:12:57;;;;;;;85.82;45.85;;;;;;;1.30;70.24;94784.34;5024761;28;20025;-78
2022/01/05 04:15:23;;;;;;;83.47;45.28;;;;;;;1.24;68.89;94782.25;5027675;28;20029;-76
2022/01/05 04:17:48;;;;;;;92.25;45.28;;;;;;;1.18;68.87;94780.97;4991266;28;20037;-76
2022/01/05 04:20:16;;;;;;;83.75;43.13;;;;;;;1.20;69.15;94778.19;5008660;28;20087;-77
2022/01/05 04:22:41;;;;;;;74.78;40.60;;;;;;;1.22;69.23;94781.53;4992234;28;20026;-77
2022/01/05 04:25:07;;;;;;;80.45;40.80;;;;;;;1.17;69.62;94773.19;5007808;28;20052;-76
2022/01/05 04:27:33;;;;;;;77.22;40.42;;;;;;;1.05;70.41;94785.69;5008822;28;20033;-79
2022/01/05 04:29:58;;;;;;;77.70;42.85;;;;;;;1.03;70.14;94782.31;5024551;28;20022;-78
2022/01/05 04:32:24;;;;;;;94.40;47.28;;;;;;;1.01;70.62;94793.03;5009152;28;20145;-77
2022/01/05 04:34:49;;;;;;;79.55;44.00;;;;;;;1.04;70.38;94790.09;5009965;28;20037;-77
2022/01/05 04:37:14;;;;;;;103.00;51.22;;;;;;;1.06;70.41;94788.19;5030312;28;20033;-77
2022/01/05 04:39:40;;;;;;;100.13;51.13;;;;;;;1.08;70.82;94795.97;5011052;28;20029;-77
2022/01/05 04:42:06;;;;;;;94.80;49.50;;;;;;;1.03;70.98;94795.53;4995786;28;20404;-79
2022/01/05 04:44:31;;;;;;;82.15;45.53;;;;;;;1.01;70.62;94806.22;5011729;28;20065;-77
2022/01/05 04:46:56;;;;;;;87.35;46.30;;;;;;;0.98;71.17;94799.38;5028977;28;20032;-78
2022/01/05 04:49:22;;;;;;;91.78;46.22;;;;;;;0.99;70.54;94802.88;4995588;28;20036;-79
2022/01/05 04:51:47;;;;;;;90.32;45.17;;;;;;;0.99;70.48;94797.59;5010680;28;20107;-78
2022/01/05 04:54:13;;;;;;;91.68;46.03;;;;;;;1.02;69.72;94807.03;5029795;28;20096;-78
2022/01/05 04:56:38;;;;;;;88.22;46.35;;;;;;;0.96;69.37;94798.72;5028227;28;20026;-79
2022/01/05 04:59:03;;;;;;;90.47;45.33;;;;;;;0.91;70.18;94803.53;5012035;28;20484;-78
2022/01/05 05:01:29;;;;;;;87.07;48.83;;;;;;;0.86;70.45;94808.38;5010870;28;20018;-78
2022/01/05 05:03:54;;;;;;;86.43;44.83;;;;;;;0.84;70.08;94815.59;5029483;28;20021;-78
2022/01/05 05:06:21;;;;;;;88.78;46.65;;;;;;;0.93;70.27;94812.19;5011586;28;20022;-77
2022/01/05 05:08:46;;;;;;;75.35;43.53;;;;;;;0.95;70.33;94819.97;5028672;28;20021;-80
2022/01/05 05:11:12;;;;;;;75.60;41.78;;;;;;;0.96;69.88;94819.84;5029394;28;20025;-77
2022/01/05 05:13:37;;;;;;;78.07;41.08;;;;;;;0.86;71.37;94822.44;5010067;28;20227;-75
2022/01/05 05:16:03;;;;;;;83.03;42.40;;;;;;;0.89;71.15;94833.69;5029288;28;20274;-77
2022/01/05 05:18:28;;;;;;;89.68;47.65;;;;;;;0.85;70.78;94838.41;5027478;28;20091;-78
2022/01/05 05:20:53;;;;;;;84.13;45.33;;;;;;;0.85;71.04;94839.22;5029692;28;20029;-79
2022/01/05 05:23:19;;;;;;;85.43;40.58;;;;;;;0.90;72.30;94840.66;5028129;28;20030;-77
2022/01/05 05:25:44;;;;;;;80.32;43.55;;;;;;;0.92;70.94;94839.53;5011655;28;20096;-77
2022/01/05 05:28:10;;;;;;;68.35;38.67;;;;;;;0.95;71.48;94838.44;5029199;28;20493;-76
2022/01/05 05:30:35;;;;;;;72.68;37.97;;;;;;;1.01;71.36;94832.63;5028017;28;20496;-76
2022/01/05 05:33:02;;;;;;;81.57;40.55;;;;;;;0.95;70.98;94825.25;5011909;28;20088;-77
2022/01/05 05:35:27;;;;;;;75.60;39.55;;;;;;;0.93;72.22;94825.38;5009638;28;20029;-76
2022/01/05 05:37:53;;;;;;;77.85;39.30;;;;;;;0.92;72.52;94831.59;5029439;28;20025;-79
2022/01/05 05:40:19;;;;;;;82.68;41.30;;;;;;;0.98;71.63;94823.16;5027073;28;20068;-76
2022/01/05 05:42:44;;;;;;;78.25;42.97;;;;;;;0.97;71.91;94821.50;5011294;28;20033;-76
2022/01/05 05:45:10;;;;;;;86.68;44.20;;;;;;;1.02;71.49;94831.66;5026999;28;20030;-77
2022/01/05 05:47:35;;;;;;;96.90;48.65;;;;;;;1.05;71.87;94826.09;5028137;28;20084;-77
2022/01/05 05:50:00;;;;;;;108.70;53.15;;;;;;;1.06;72.34;94826.94;5028755;28;20033;-77
2022/01/05 05:52:26;;;;;;;112.68;57.47;;;;;;;1.06;71.99;94838.34;4993107;28;20022;-76
2022/01/05 05:54:52;;;;;;;118.05;58.97;;;;;;;1.12;71.35;94836.97;5028537;28;20415;-77
2022/01/05 05:57:18;;;;;;;103.88;53.88;;;;;;;1.15;71.27;94826.16;5027081;28;20477;-77
2022/01/05 05:59:43;;;;;;;105.90;53.08;;;;;;;1.04;71.82;94827.09;5010742;28;20030;-78
2022/01/05 06:02:09;;;;;;;104.63;51.58;;;;;;;0.96;71.62;94840.97;5009258;28;20021;-78
2022/01/05 06:04:34;;;;;;;102.43;51.92;;;;;;;0.82;72.04;94838.66;5010591;28;20026;-77
2022/01/05 06:06:59;;;;;;;97.90;51.92;;;;;;;0.72;73.50;94838.59;4996725;28;20025;-77
2022/01/05 06:09:25;;;;;;;99.38;50.42;;;;;;;0.81;72.91;94829.91;5032228;28;20029;-77
2022/01/05 06:11:50;;;;;;;104.53;51.80;;;;;;;0.86;72.56;94830.34;5015508;28;20025;-78
2022/01/05 06:14:16;;;;;;;114.57;53.65;;;;;;;0.90;72.64;94838.84;5030472;28;20021;-77
2022/01/05 06:16:43;;;;;;;104.65;51.30;;;;;;;0.75;72.21;94840.97;5031337;28;20539;-77
2022/01/05 06:19:08;;;;;;;93.63;46.03;;;;;;;0.78;73.48;94835.44;5027107;28;20055;-77
2022/01/05 06:21:34;;;;;;;93.97;50.42;;;;;;;0.91;73.14;94842.31;5028640;28;20508;-79
2022/01/05 06:23:59;;;;;;;86.57;47.83;;;;;;;1.01;71.54;94840.56;5027225;28;20014;-78
2022/01/05 06:26:24;;;;;;;103.70;49.67;;;;;;;1.01;71.95;94847.63;5028678;28;20029;-77
2022/01/05 06:28:50;;;;;;;81.35;46.53;;;;;;;1.10;72.35;94847.69;5028112;28;20037;-78
2022/01/05 06:31:16;;;;;;;87.57;46.13;;;;;;;1.19;71.99;94837.28;5027395;28;20025;-77
2022/01/05 06:33:41;;;;;;;90.70;48.70;;;;;;;1.33;71.57;94834.28;5028189;28;20572;-78
2022/01/05 06:36:07;;;;;;;86.93;45.75;;;;;;;1.45;71.67;94837.63;4993046;28;20029;-79
2022/01/05 06:38:32;;;;;;;98.60;49.65;;;;;;;1.56;71.84;94847.28;5028245;28;20040;-77
2022/01/05 06:40:58;;;;;;;102.28;50.72;;;;;;;1.65;70.75;94839.47;5026381;28;20496;-77
2022/01/05 06:43:23;;;;;;;99.95;47.88;;;;;;;1.77;70.47;94853.41;5028452;28;20571;-78
2022/01/05 06:45:48;;;;;;;101.72;51.65;;;;;;;1.80;71.34;94866.38;5026343;28;20410;-77
2022/01/05 06:48:14;;;;;;;110.40;56.00;;;;;;;1.78;71.69;94855.94;5027788;28;20104;-76
2022/01/05 06:50:39;;;;;;;109.82;57.20;;;;;;;1.67;72.22;94850.75;5027354;28;20400;-78
2022/01/05 06:53:05;;;;;;;115.47;60.45;;;;;;;1.63;72.94;94858.13;5026283;28;20025;-77
2022/01/05 06:55:30;;;;;;;132.15;67.20;;;;;;;1.58;73.74;94855.88;5028375;28;20026;-77
2022/01/05 06:57:56;;;;;;;123.45;63.97;;;;;;;1.64;74.59;94843.94;5008112;28;20083;-76
2022/01/05 07:00:22;;;;;;;126.38;62.67;;;;;;;1.88;73.42;94836.59;5010203;28;20033;-77
2022/01/05 07:02:48;;;;;;;122.30;64.63;;;;;;;2.13;72.85;94848.44;5008357;28;20059;-77
2022/01/05 07:05:13;;;;;;;116.53;61.10;;;;;;;2.31;71.95;94839.78;5027815;28;20029;-77
2022/01/05 07:07:39;;;;;;;125.60;62.88;;;;;;;2.46;72.21;94843.69;5026661;28;20463;-77
2022/01/05 07:10:05;;;;;;;109.25;58.60;;;;;;;2.58;71.78;94857.59;5027108;28;20116;-77
2022/01/05 07:12:32;;;;;;;135.85;73.35;;;;;;;2.81;68.18;94851.97;5027645;28;20030;-77
2022/01/05 07:14:57;;;;;;;140.35;74.57;;;;;;;2.76;68.86;94858.69;5025601;28;20087;-77
2022/01/05 07:17:23;;;;;;;141.48;75.75;;;;;;;2.75;68.51;94860.50;5027380;28;20049;-76
2022/01/05 07:19:48;;;;;;;140.93;73.28;;;;;;;2.81;68.59;94869.69;5025300;28;20037;-78
2022/01/05 07:22:14;;;;;;;139.73;69.18;;;;;;;3.01;67.29;94865.19;5027547;28;20021;-79
2022/01/05 07:24:39;;;;;;;148.68;71.32;;;;;;;3.16;67.24;94862.06;5008063;28;20243;-78
2022/01/05 07:27:05;;;;;;;143.85;71.00;;;;;;;3.19;67.03;94867.06;5009108;28;20528;-77
2022/01/05 07:29:30;;;;;;;132.80;68.03;;;;;;;3.21;66.95;94868.59;5026874;28;20025;-77
2022/01/05 07:31:56;;;;;;;125.97;64.43;;;;;;;3.38;66.92;94862.66;5007953;28;20076;-78
2022/01/05 07:34:21;;;;;;;138.48;66.80;;;;;;;3.45;66.46;94863.75;5027273;28;20021;-75
2022/01/05 07:36:47;;;;;;;125.75;66.90;;;;;;;3.59;66.17;94859.78;5025375;28;20029;-78
2022/01/05 07:39:12;;;;;;;126.97;65.38;;;;;;;3.76;66.13;94866.09;5009653;28;20033;-78
2022/01/05 07:41:38;;;;;;;134.23;64.88;;;;;;;3.95;64.97;94866.94;5025309;28;20032;-77
2022/01/05 07:44:03;;;;;;;119.13;66.47;;;;;;;4.10;66.17;94874.38;4992875;28;20029;-76
2022/01/05 07:46:29;;;;;;;129.88;65.55;;;;;;;4.23;65.81;94864.25;5025978;28;20029;-77
2022/01/05 07:48:54;;;;;;;110.95;57.75;;;;;;;4.50;64.47;94861.66;5026243;28;20033;-76
2022/01/05 07:51:20;;;;;;;93.38;50.97;;;;;;;4.52;64.26;94870.28;5027294;28;20396;-76
2022/01/05 07:53:45;;;;;;;86.03;50.63;;;;;;;4.54;64.49;94879.81;5007711;28;20436;-78
2022/01/05 07:56:11;;;;;;;108.03;53.70;;;;;;;4.68;64.59;94874.91;5026735;28;20026;-77
2022/01/05 07:58:36;;;;;;;113.57;54.17;;;;;;;4.82;63.66;94866.38;5024857;28;20026;-76
2022/01/05 08:01:05;;;;;;;90.13;48.65;;;;;;;5.02;62.53;94876.81;5008995;28;20026;-77
2022/01/05 08:03:33;;;;;;;86.47;46.75;;;;;;;4.89;63.68;94871.06;5007678;28;20091;-77
2022/01/05 08:06:01;;;;;;;80.82;47.70;;;;;;;5.01;63.16;94874.31;5026495;28;20111;-77
2022/01/05 08:08:27;;;;;;;80.18;43.22;;;;;;;4.89;63.65;94876.38;5027281;28;20036;-79
2022/01/05 08:10:52;;;;;;;72.60;43.03;;;;;;;5.16;63.61;94877.22;5029721;28;20018;-78
2022/01/05 08:13:18;;;;;;;72.57;42.42;;;;;;;5.25;63.21;94870.97;5030747;28;20499;-76
2022/01/05 08:15:43;;;;;;;57.00;35.90;;;;;;;5.48;62.78;94866.94;5028758;28;20032;-76
2022/01/05 08:18:09;;;;;;;57.08;35.50;;;;;;;5.67;61.89;94866.66;5030460;28;20029;-77
2022/01/05 08:20:34;;;;;;;61.03;34.67;;;;;;;5.70;61.96;94860.19;5028685;28;20574;-77
2022/01/05 08:23:00;;;;;;;56.28;32.92;;;;;;;5.78;62.41;94857.56;5030411;28;20030;-78
2022/01/05 08:25:25;;;;;;;54.47;32.50;;;;;;;6.01;61.27;94861.47;5029247;28;20033;-78
2022/01/05 08:27:51;;;;;;;49.65;31.25;;;;;;;6.15;61.34;94860.00;5012195;28;20018;-80
2022/01/05 08:30:19;;;;;;;44.30;27.17;;;;;;;6.23;61.15;94862.69;5012237;28;20025;-78
2022/01/05 08:32:45;;;;;;;40.30;24.60;;;;;;;6.32;60.77;94857.38;4994987;28;20108;-78
2022/01/05 08:35:11;;;;;;;37.28;25.52;;;;;;;6.39;61.13;94856.56;4996137;28;20043;-77
2022/01/05 08:37:37;;;;;;;42.45;24.52;;;;;;;6.33;61.14;94851.06;5028461;28;20032;-77
2022/01/05 08:40:03;;;;;;;38.65;22.83;;;;;;;6.58;60.73;94849.22;5030020;28;20108;-78
2022/01/05 08:42:29;;;;;;;39.85;22.70;;;;;;;6.67;60.39;94842.09;5028628;28;20014;-79
2022/01/05 08:44:54;;;;;;;37.78;23.85;;;;;;;6.76;60.21;94849.06;5012247;28;20401;-77
2022/01/05 08:47:19;;;;;;;36.17;21.65;;;;;;;7.00;59.50;94858.03;5029294;28;20030;-77
2022/01/05 08:49:45;;;;;;;32.33;21.48;;;;;;;7.12;58.74;94850.53;5011225;28;20074;-78
2022/01/05 08:52:10;;;;;;;32.33;22.25;;;;;;;7.16;58.81;94862.50;5029662;28;20099;-77
2022/01/05 08:54:36;;;;;;;29.92;18.38;;;;;;;7.24;58.80;94856.31;5028034;28;20025;-77
2022/01/05 08:57:01;;;;;;;28.42;16.88;;;;;;;7.40;57.35;94854.59;5030132;28;20029;-76
2022/01/05 09:03:16;;;;;;;26.73;17.52;;;;;;;7.53;57.08;94841.56;5029039;28;20048;-78
2022/01/05 09:05:42;;;;;;;28.42;17.33;;;;;;;7.52;57.47;94837.25;5030001;28;20048;-78
2022/01/05 09:08:07;;;;;;;26.20;16.85;;;;;;;7.49;57.34;94840.25;5009944;28;20412;-77
2022/01/05 09:10:33;;;;;;;29.45;18.00;;;;;;;7.53;57.31;94830.03;5029612;28;20025;-78
2022/01/05 09:12:59;;;;;;;31.20;17.88;;;;;;;7.67;57.59;94828.50;5027945;28;20030;-79
2022/01/05 09:15:25;;;;;;;29.67;18.65;;;;;;;7.60;57.05;94825.69;5011333;28;20424;-79
2022/01/05 09:17:50;;;;;;;30.00;18.63;;;;;;;7.70;56.84;94821.97;4995198;28;20045;-79
2022/01/05 09:20:16;;;;;;;28.95;19.10;;;;;;;7.75;56.81;94823.13;5009952;28;20032;-77
2022/01/05 09:22:41;;;;;;;31.05;19.27;;;;;;;7.69;56.48;94815.78;4979140;28;20038;-79
2022/01/05 09:25:09;;;;;;;30.15;19.33;;;;;;;7.54;56.84;94805.03;5027515;28;20484;-79
2022/01/05 09:27:35;;;;;;;30.00;19.70;;;;;;;7.69;57.11;94817.66;5011810;28;20513;-78
2022/01/05 09:30:01;;;;;;;28.58;19.45;;;;;;;7.84;57.05;94796.38;5027317;28;20112;-77
2022/01/05 09:32:26;;;;;;;33.22;20.30;;;;;;;7.68;57.00;94792.78;5011352;28;20099;-77
2022/01/05 09:34:52;;;;;;;37.97;21.25;;;;;;;7.92;56.64;94785.66;5010562;28;20029;-78
2022/01/05 09:37:23;;;;;;;29.60;20.27;;;;;;;8.09;56.22;94797.06;5010506;28;20024;-78
2022/01/05 09:42:33;;;;;;;29.52;20.48;;;;;;;7.75;57.01;94788.44;5011607;28;20029;-78
2022/01/05 09:44:58;;;;;;;33.83;20.52;;;;;;;7.85;56.90;94782.03;5029093;28;20029;-78
2022/01/05 09:47:31;;;;;;;29.85;18.85;;;;;;;7.93;56.86;94782.00;4992896;28;20028;-75
2022/01/05 09:50:07;;;;;;;33.70;19.63;;;;;;;7.97;56.46;94780.63;5010780;28;20492;-77
2022/01/05 09:52:33;;;;;;;28.83;18.67;;;;;;;7.95;56.81;94773.81;5011462;28;20479;-77
2022/01/05 09:54:59;;;;;;;26.50;17.55;;;;;;;7.85;56.39;94763.34;4976697;28;20172;-77
2022/01/05 09:57:28;;;;;;;28.05;17.48;;;;;;;7.77;57.02;94767.72;4978071;28;20029;-77
2022/01/05 09:59:53;;;;;;;29.38;17.52;;;;;;;7.94;57.11;94767.63;4992734;28;20033;-77
2022/01/05 10:02:19;;;;;;;27.58;16.35;;;;;;;8.18;56.56;94760.44;4978347;28;20091;-76
2022/01/05 10:04:45;;;;;;;28.00;17.52;;;;;;;8.29;56.17;94757.34;4976210;28;20505;-76
2022/01/05 10:07:11;;;;;;;25.67;16.58;;;;;;;8.46;55.69;94754.56;5010764;28;20029;-77
2022/01/05 10:09:37;;;;;;;27.02;16.65;;;;;;;8.57;55.72;94749.78;5027519;28;20349;-78
2022/01/05 10:12:03;;;;;;;27.75;17.67;;;;;;;8.61;55.75;94741.22;5027248;28;20053;-77
2022/01/05 10:14:30;;;;;;;29.58;19.25;;;;;;;8.66;55.35;94740.69;4994152;28;20053;-78
2022/01/05 10:17:15;;;;;;;34.13;17.80;;;;;;;8.74;55.21;94740.59;5026325;28;20049;-76
2022/01/05 10:19:40;;;;;;;30.20;17.48;;;;;;;8.78;55.33;94739.25;4978918;28;20101;-77
2022/01/05 10:22:27;;;;;;;28.77;17.25;;;;;;;8.70;55.20;94733.97;5008505;28;20060;-77
2022/01/05 10:24:56;;;;;;;35.88;18.40;;;;;;;8.88;54.60;94743.50;5009550;28;20030;-78
2022/01/05 10:27:23;;;;;;;28.65;17.70;;;;;;;8.81;54.19;94730.00;5010871;28;20024;-78
2022/01/05 10:29:58;;;;;;;26.58;18.15;;;;;;;8.85;54.95;94725.94;4994069;28;20104;-78
2022/01/05 10:32:24;;;;;;;28.70;17.05;;;;;;;8.86;54.73;94716.09;5027500;28;20500;-77
2022/01/05 10:35:20;;;;;;;30.15;16.77;;;;;;;8.90;55.11;94720.03;5008107;28;20021;-79
2022/01/05 10:37:55;;;;;;;29.00;16.88;;;;;;;8.89;54.59;94715.72;4993554;28;20041;-79
2022/01/05 10:40:22;;;;;;;28.48;16.95;;;;;;;9.05;54.55;94711.19;4994725;28;20520;-78
2022/01/05 10:42:49;;;;;;;34.95;17.48;;;;;;;9.11;53.85;94697.06;4991940;28;20029;-77
2022/01/05 10:45:16;;;;;;;35.08;18.95;;;;;;;9.16;54.22;94692.00;4977729;28;20029;-78
2022/01/05 10:47:42;;;;;;;31.60;17.65;;;;;;;9.11;53.64;94687.22;4975609;28;20025;-78
2022/01/05 10:50:17;;;;;;;32.42;19.42;;;;;;;9.07;53.61;94685.94;4993462;28;20080;-77
2022/01/05 10:52:45;;;;;;;32.70;18.48;;;;;;;9.16;54.23;94681.28;4993106;28;20037;-78
2022/01/05 10:55:15;;;;;;;32.88;18.73;;;;;;;9.26;53.68;94686.34;4993518;28;20508;-77
2022/01/05 10:58:02;;;;;;;25.45;17.38;;;;;;;9.16;53.77;94683.97;5027256;28;20504;-78
2022/01/05 11:00:41;;;;;;;28.00;17.08;;;;;;;9.24;53.69;94675.84;5007476;28;20377;-78
2022/01/05 11:03:21;;;;;;;28.55;17.17;;;;;;;9.32;53.31;94674.91;5027678;28;20029;-77
2022/01/05 11:06:07;;;;;;;31.02;18.05;;;;;;;9.43;53.19;94678.13;5026227;28;20028;-77
2022/01/05 11:08:33;;;;;;;27.13;16.45;;;;;;;9.48;53.54;94665.00;5026281;28;20444;-78
2022/01/05 11:10:58;;;;;;;30.65;17.98;;;;;;;9.49;53.25;94664.81;5009696;28;20036;-75
2022/01/05 11:13:27;;;;;;;26.67;15.85;;;;;;;9.63;52.78;94654.22;4991518;28;20021;-77
2022/01/05 11:15:58;;;;;;;21.42;15.77;;;;;;;9.79;52.34;94655.84;5026844;28;20108;-76
2022/01/05 11:18:24;;;;;;;23.25;15.88;;;;;;;9.81;52.01;94647.59;5025291;28;20064;-78
2022/01/05 11:20:57;;;;;;;30.80;16.60;;;;;;;9.97;51.56;94646.50;5026868;28;20396;-78
2022/01/05 11:23:23;;;;;;;28.02;16.30;;;;;;;9.99;52.49;94645.31;5026722;28;20524;-77
2022/01/05 11:25:49;;;;;;;29.23;16.98;;;;;;;10.05;51.67;94634.81;5025537;28;20116;-78